Time;durP1;ratioP1;P1;durP2;ratioP2;P2;SDS_P1;SDS_P2;PMS_P1;PMS_P2;Temp;Humidity;BMP_temperature;BMP_pressure;BME280_temperature;BME280_humidity;BME280_pressure;Samples;Min_cycle;Max_cycle;Signal;HPM_P1;HPM_P2
2022/08/28 00:01:58;;;;;;;24.05;10.75;;;;;;;14.74;90.41;94390.74;1719554;81;21001;-46
2022/08/28 00:04:26;;;;;;;21.87;9.83;;;;;;;14.71;90.33;94399.41;1718264;82;21124;-46
2022/08/28 00:06:53;;;;;;;25.70;10.65;;;;;;;14.70;90.21;94392.35;1746018;81;21111;-47
2022/08/28 00:09:23;;;;;;;30.68;9.85;;;;;;;14.70;90.21;94390.19;1747392;81;21476;-47
2022/08/28 00:11:52;;;;;;;22.05;10.63;;;;;;;14.63;90.49;94387.20;1745995;81;21457;-47
2022/08/28 00:14:20;;;;;;;20.72;9.85;;;;;;;14.57;90.98;94396.05;1738530;81;20974;-47
2022/08/28 00:16:50;;;;;;;17.98;11.28;;;;;;;14.54;90.96;94391.48;1746777;81;20994;-46
2022/08/28 00:19:18;;;;;;;29.75;10.53;;;;;;;14.53;91.24;94387.19;1746534;81;21489;-45
2022/08/28 00:21:46;;;;;;;17.95;10.65;;;;;;;14.55;91.38;94390.84;1742400;81;21319;-46
2022/08/28 00:24:13;;;;;;;24.77;10.63;;;;;;;14.57;91.32;94392.50;1742658;81;21060;-45
2022/08/28 00:29:28;;;;;;;19.60;10.32;;;;;;;14.55;91.28;94393.61;1710531;82;21056;-46
2022/08/28 00:31:55;;;;;;;22.98;10.78;;;;;;;14.48;90.83;94392.00;1741915;81;21174;-46
2022/08/28 00:34:23;;;;;;;22.93;11.05;;;;;;;14.43;90.76;94391.94;1720439;81;21203;-45
2022/08/28 00:36:52;;;;;;;23.52;10.72;;;;;;;14.42;90.93;94392.41;1721275;81;20950;-46
2022/08/28 00:39:21;;;;;;;23.15;10.15;;;;;;;14.40;90.92;94387.34;1742952;81;20966;-46
2022/08/28 00:41:49;;;;;;;17.37;10.63;;;;;;;14.40;90.91;94385.20;1748482;81;21049;-46
2022/08/28 00:44:22;;;;;;;25.88;11.20;;;;;;;14.41;90.83;94399.19;1744559;80;21069;-46
2022/08/28 00:46:51;;;;;;;18.17;9.98;;;;;;;14.41;90.82;94388.89;1743252;81;21270;-46
2022/08/28 00:49:26;;;;;;;24.18;10.23;;;;;;;14.43;90.81;94387.16;1746475;81;21049;-46
2022/08/28 00:52:10;;;;;;;17.50;10.23;;;;;;;14.46;90.61;94379.91;1743694;81;21265;-45
2022/08/28 00:54:59;;;;;;;19.82;9.23;;;;;;;14.47;90.38;94386.33;1744453;81;21036;-46
2022/08/28 00:57:34;;;;;;;17.27;9.33;;;;;;;14.46;90.27;94387.57;1739611;81;20981;-46
2022/08/28 01:00:03;;;;;;;24.45;10.20;;;;;;;14.40;90.37;94387.34;1740799;82;21415;-47
2022/08/28 01:02:32;;;;;;;22.27;9.30;;;;;;;14.32;90.63;94386.86;1743073;81;21367;-45
2022/08/28 01:05:00;;;;;;;15.40;9.08;;;;;;;14.26;90.79;94379.84;1744927;81;20966;-47
2022/08/28 01:07:27;;;;;;;14.87;8.88;;;;;;;14.23;91.28;94379.42;1747015;81;21075;-45
2022/08/28 01:09:55;;;;;;;24.12;10.43;;;;;;;14.21;91.07;94374.22;1746667;81;20984;-45
2022/08/28 01:12:27;;;;;;;15.95;10.13;;;;;;;14.20;91.12;94378.23;1720877;81;21212;-46
2022/08/28 01:14:58;;;;;;;16.32;8.60;;;;;;;14.18;91.08;94375.92;1746283;81;20941;-46
2022/08/28 01:17:29;;;;;;;22.30;9.90;;;;;;;14.16;90.95;94374.90;1739548;80;21202;-46
2022/08/28 01:20:01;;;;;;;12.53;8.50;;;;;;;14.17;90.95;94377.80;1741255;81;21222;-46
2022/08/28 01:23:04;;;;;;;17.35;9.00;;;;;;;14.19;90.94;94378.09;1714494;81;21612;-46
2022/08/28 01:25:34;;;;;;;15.77;8.67;;;;;;;14.22;91.04;94384.04;1735426;81;21281;-46
2022/08/28 01:28:04;;;;;;;17.23;8.40;;;;;;;14.21;91.17;94374.22;1747994;81;20994;-46
2022/08/28 01:30:32;;;;;;;14.83;9.40;;;;;;;14.19;91.14;94379.47;1746654;81;21394;-45
2022/08/28 01:33:00;;;;;;;21.02;9.10;;;;;;;14.16;91.10;94379.05;1745354;81;21040;-46
2022/08/28 01:35:34;;;;;;;22.93;9.40;;;;;;;14.10;91.07;94378.14;1722791;82;21053;-46
2022/08/28 01:38:02;;;;;;;18.30;8.10;;;;;;;14.06;91.52;94387.27;1745197;81;21826;-47
2022/08/28 01:40:35;;;;;;;16.07;8.53;;;;;;;14.03;91.61;94379.92;1749099;80;20984;-47
2022/08/28 01:43:11;;;;;;;15.20;8.13;;;;;;;14.00;91.58;94380.89;1744161;81;21548;-46
2022/08/28 01:45:41;;;;;;;14.23;8.30;;;;;;;13.97;91.54;94384.61;1746789;81;21511;-46
2022/08/28 01:48:08;;;;;;;15.80;8.90;;;;;;;13.95;91.55;94387.06;1743468;81;21476;-46
2022/08/28 01:50:36;;;;;;;21.45;9.00;;;;;;;13.93;91.53;94379.87;1742633;81;21088;-46
2022/08/28 01:53:04;;;;;;;19.00;9.50;;;;;;;13.94;91.60;94382.77;1738557;81;20986;-47
2022/08/28 01:55:34;;;;;;;16.52;8.58;;;;;;;13.89;91.29;94375.16;1739879;81;21046;-46
2022/08/28 01:58:04;;;;;;;12.58;8.18;;;;;;;13.85;91.37;94379.48;1743465;81;20994;-46
2022/08/28 02:00:32;;;;;;;18.05;7.70;;;;;;;13.88;91.79;94375.02;1710318;82;21024;-46
2022/08/28 02:03:00;;;;;;;14.15;8.60;;;;;;;13.90;91.55;94379.44;1741076;82;21110;-46
2022/08/28 02:05:31;;;;;;;13.40;7.92;;;;;;;13.87;91.40;94377.64;1743404;82;21594;-47
2022/08/28 02:07:59;;;;;;;19.92;8.50;;;;;;;13.81;91.35;94378.17;1743445;81;20993;-47
2022/08/28 02:10:28;;;;;;;23.65;9.55;;;;;;;13.76;91.44;94385.13;1741322;82;21001;-47
2022/08/28 02:12:56;;;;;;;13.43;8.43;;;;;;;13.73;91.33;94381.16;1719393;81;20934;-47
2022/08/28 02:15:25;;;;;;;14.05;8.35;;;;;;;13.71;91.41;94378.11;1723253;81;20929;-46
2022/08/28 02:17:54;;;;;;;16.17;8.23;;;;;;;13.71;91.20;94381.64;1746729;81;21219;-47
2022/08/28 02:20:22;;;;;;;19.85;8.30;;;;;;;13.66;91.22;94376.76;1739912;81;21025;-46
2022/08/28 02:22:51;;;;;;;25.62;8.58;;;;;;;13.61;91.48;94380.19;1746815;80;21052;-46
2022/08/28 02:25:19;;;;;;;15.83;7.95;;;;;;;13.60;91.93;94383.45;1733520;81;21045;-47
2022/08/28 02:27:47;;;;;;;15.55;8.70;;;;;;;13.61;92.23;94369.14;1740824;81;21469;-46
2022/08/28 02:30:16;;;;;;;18.00;7.58;;;;;;;13.63;92.41;94366.66;1720098;81;21421;-46
2022/08/28 02:32:45;;;;;;;13.50;7.90;;;;;;;13.66;92.33;94364.95;1741022;81;21073;-46
2022/08/28 02:35:15;;;;;;;14.40;7.55;;;;;;;13.60;92.22;94364.84;1716622;80;21018;-46
2022/08/28 02:37:43;;;;;;;24.60;8.73;;;;;;;13.55;92.01;94359.21;1743277;81;21468;-46
2022/08/28 02:40:13;;;;;;;29.42;10.90;;;;;;;13.44;91.68;94363.17;1742230;80;21245;-46
2022/08/28 02:42:41;;;;;;;20.20;9.05;;;;;;;13.34;91.74;94359.73;1742740;81;21081;-46
2022/08/28 02:45:10;;;;;;;28.95;9.30;;;;;;;13.35;92.05;94363.23;1743156;81;20989;-47
2022/08/28 02:47:41;;;;;;;22.07;9.43;;;;;;;13.33;92.20;94362.95;1749321;81;20981;-46
2022/08/28 02:50:09;;;;;;;20.55;9.05;;;;;;;13.34;92.28;94365.86;1748731;81;21000;-47
2022/08/28 02:52:37;;;;;;;14.38;9.35;;;;;;;13.36;91.95;94366.14;1748438;81;21952;-47
2022/08/28 02:55:07;;;;;;;22.67;9.00;;;;;;;13.38;91.97;94368.59;1747108;81;20934;-47
2022/08/28 02:57:34;;;;;;;17.85;8.58;;;;;;;13.40;91.67;94366.11;1740158;82;21002;-45
2022/08/28 03:00:05;;;;;;;18.25;8.95;;;;;;;13.40;91.58;94369.48;1748867;81;20988;-46
2022/08/28 03:02:35;;;;;;;27.27;9.45;;;;;;;13.39;91.49;94361.05;1717882;81;20930;-46
2022/08/28 03:05:03;;;;;;;21.55;9.18;;;;;;;13.37;91.59;94362.14;1747310;81;21214;-46
2022/08/28 03:07:34;;;;;;;20.68;9.63;;;;;;;13.37;91.90;94357.39;1739606;81;21062;-46
2022/08/28 03:10:03;;;;;;;18.52;9.08;;;;;;;13.41;91.96;94362.74;1743705;81;21578;-46
2022/08/28 03:12:32;;;;;;;18.02;8.00;;;;;;;13.43;91.82;94365.16;1744830;81;21056;-46
2022/08/28 03:15:00;;;;;;;17.62;9.95;;;;;;;13.41;91.64;94368.27;1749786;81;21095;-47
2022/08/28 03:17:28;;;;;;;19.70;8.90;;;;;;;13.37;91.75;94362.14;1745842;80;21244;-46
2022/08/28 03:19:55;;;;;;;17.07;8.18;;;;;;;13.37;91.78;94368.45;1748821;81;21001;-47
2022/08/28 03:24:53;;;;;;;14.53;8.25;;;;;;;13.38;91.22;94380.25;1700031;82;21056;-47
2022/08/28 03:27:20;;;;;;;14.95;8.50;;;;;;;13.32;91.07;94381.55;1742752;81;21421;-47
2022/08/28 03:29:48;;;;;;;15.45;7.97;;;;;;;13.31;91.10;94386.15;1747690;81;21861;-47
2022/08/28 03:32:16;;;;;;;21.50;8.58;;;;;;;13.29;90.69;94383.84;1746752;81;20930;-45
2022/08/28 03:34:44;;;;;;;13.32;8.30;;;;;;;13.26;90.54;94377.14;1745313;81;20962;-46
2022/08/28 03:37:12;;;;;;;12.40;7.92;;;;;;;13.25;90.82;94385.28;1742973;81;20950;-46
2022/08/28 03:39:39;;;;;;;14.60;8.13;;;;;;;13.26;91.05;94379.91;1742035;80;21438;-46
2022/08/28 03:42:07;;;;;;;16.65;7.97;;;;;;;13.27;91.10;94382.81;1743046;81;21086;-46
2022/08/28 03:44:36;;;;;;;26.45;8.00;;;;;;;13.27;90.90;94383.56;1743410;81;21183;-46
2022/08/28 03:47:04;;;;;;;19.55;7.90;;;;;;;13.23;91.09;94383.63;1695164;81;20947;-45
2022/08/28 03:49:33;;;;;;;16.82;8.75;;;;;;;13.18;91.18;94388.39;1744585;80;20950;-46
2022/08/28 03:52:01;;;;;;;23.62;9.50;;;;;;;13.13;91.60;94387.67;1743492;82;21057;-46
2022/08/28 03:54:30;;;;;;;21.62;10.05;;;;;;;13.12;91.87;94390.29;1746186;81;21120;-46
2022/08/28 03:56:58;;;;;;;27.60;8.38;;;;;;;13.11;92.25;94394.29;1741091;81;20986;-46
2022/08/28 03:59:25;;;;;;;28.65;9.53;;;;;;;13.15;92.24;94390.12;1741560;81;20957;-46
2022/08/28 04:01:53;;;;;;;18.95;9.15;;;;;;;13.18;92.24;94399.44;1742716;81;20962;-46
2022/08/28 04:04:21;;;;;;;17.15;10.05;;;;;;;13.17;91.81;94391.01;1741926;81;21414;-46
2022/08/28 04:06:49;;;;;;;18.80;9.38;;;;;;;13.15;91.96;94396.25;1742188;82;21261;-46
2022/08/28 04:09:18;;;;;;;16.30;7.67;;;;;;;13.16;92.24;94400.53;1742426;81;21041;-46
2022/08/28 04:11:46;;;;;;;18.87;8.28;;;;;;;13.19;92.13;94397.60;1715978;81;20961;-46
2022/08/28 04:14:15;;;;;;;19.90;8.35;;;;;;;13.22;92.10;94404.94;1691187;83;20983;-46
2022/08/28 04:16:44;;;;;;;21.90;8.98;;;;;;;13.23;92.02;94406.47;1716470;82;21032;-47
2022/08/28 04:19:11;;;;;;;14.58;8.65;;;;;;;13.28;91.98;94403.67;1745908;81;21233;-47
2022/08/28 04:21:39;;;;;;;16.23;8.15;;;;;;;13.33;91.83;94403.79;1745627;81;21037;-47
2022/08/28 04:24:07;;;;;;;14.73;7.92;;;;;;;13.38;91.74;94405.11;1741294;81;21520;-46
2022/08/28 04:26:36;;;;;;;19.62;10.60;;;;;;;13.42;91.60;94404.34;1744071;81;21042;-47
2022/08/28 04:29:03;;;;;;;14.80;9.70;;;;;;;13.42;91.57;94409.86;1740996;81;21658;-46
2022/08/28 04:31:32;;;;;;;21.80;9.88;;;;;;;13.40;91.47;94405.40;1745802;81;21097;-46
2022/08/28 04:34:01;;;;;;;13.05;9.50;;;;;;;13.48;91.75;94407.33;1724792;81;21008;-46
2022/08/28 04:36:29;;;;;;;19.67;9.75;;;;;;;14.07;92.58;94408.92;1746734;81;21028;-46
2022/08/28 04:38:58;;;;;;;17.80;8.28;;;;;;;14.75;89.99;94405.51;1746605;80;21002;-47
2022/08/28 04:41:26;;;;;;;13.65;8.15;;;;;;;15.05;87.48;94402.78;1743476;81;21389;-46
2022/08/28 04:43:56;;;;;;;20.52;10.40;;;;;;;15.12;85.98;94402.97;1739860;82;21808;-46
2022/08/28 04:46:24;;;;;;;17.23;9.63;;;;;;;15.02;85.22;94413.42;1746830;80;20948;-48
2022/08/28 04:48:52;;;;;;;16.65;8.88;;;;;;;14.91;84.65;94410.52;1741756;81;21006;-47
2022/08/28 04:51:20;;;;;;;21.07;9.68;;;;;;;14.77;84.62;94414.70;1751084;80;21532;-46
2022/08/28 04:53:48;;;;;;;18.48;8.40;;;;;;;14.65;84.97;94416.55;1743081;82;21049;-46
2022/08/28 04:56:17;;;;;;;21.77;10.48;;;;;;;14.56;85.45;94418.06;1742585;81;21189;-46
2022/08/28 04:58:45;;;;;;;25.43;9.85;;;;;;;14.51;85.77;94417.36;1747046;81;21021;-46
2022/08/28 05:01:20;;;;;;;17.82;9.80;;;;;;;14.48;86.11;94415.53;1744285;80;21461;-46
2022/08/28 05:03:54;;;;;;;15.90;9.23;;;;;;;14.43;86.50;94422.99;1746540;81;21096;-46
2022/08/28 05:06:25;;;;;;;18.30;8.63;;;;;;;14.38;86.92;94411.22;1742415;81;20994;-46
2022/08/28 05:08:55;;;;;;;17.10;9.65;;;;;;;14.43;87.38;94414.83;1748015;81;21157;-46
2022/08/28 05:11:24;;;;;;;19.85;9.73;;;;;;;14.48;87.50;94404.45;1744939;80;21406;-46
2022/08/28 05:13:52;;;;;;;22.73;10.00;;;;;;;14.54;87.57;94411.47;1723016;81;20985;-46
2022/08/28 05:16:20;;;;;;;19.57;11.05;;;;;;;14.59;87.66;94411.56;1743136;81;21434;-47
2022/08/28 05:18:49;;;;;;;21.50;8.93;;;;;;;14.63;87.59;94413.50;1741465;81;21457;-47
2022/08/28 05:21:20;;;;;;;29.87;9.85;;;;;;;14.66;87.68;94400.71;1749206;81;21122;-50
2022/08/28 05:23:50;;;;;;;26.35;10.80;;;;;;;14.72;87.90;94409.25;1724057;80;21021;-46
2022/08/28 05:26:18;;;;;;;24.45;9.90;;;;;;;14.82;88.04;94407.12;1737810;81;21002;-46
2022/08/28 05:28:47;;;;;;;20.72;9.43;;;;;;;14.91;87.72;94409.75;1753016;81;21013;-46
2022/08/28 05:31:18;;;;;;;15.68;9.50;;;;;;;14.99;87.58;94408.86;1748093;80;21427;-47
2022/08/28 05:33:46;;;;;;;12.33;7.92;;;;;;;15.06;87.36;94402.92;1746461;81;21296;-47
2022/08/28 05:36:14;;;;;;;23.27;8.83;;;;;;;15.17;86.96;94401.66;1746518;81;21072;-47
2022/08/28 05:38:43;;;;;;;26.57;10.60;;;;;;;15.26;86.56;94405.70;1723168;82;21525;-48
2022/08/28 05:41:10;;;;;;;17.55;10.00;;;;;;;15.32;86.29;94403.78;1718356;82;21009;-47
2022/08/28 05:43:39;;;;;;;14.85;10.20;;;;;;;15.38;86.16;94407.37;1749999;80;20946;-47
2022/08/28 05:46:12;;;;;;;15.10;10.93;;;;;;;15.45;85.94;94405.58;1741636;81;21142;-47
2022/08/28 05:48:37;;;;;;;20.80;10.85;;;;;;;15.51;85.69;94398.08;1751118;81;21090;-46
2022/08/28 05:51:07;;;;;;;19.27;12.25;;;;;;;15.60;85.63;94404.88;1743302;81;20954;-47
2022/08/28 05:53:39;;;;;;;26.48;13.93;;;;;;;15.68;85.33;94394.88;1746007;81;21541;-47
2022/08/28 05:56:08;;;;;;;20.25;13.00;;;;;;;15.78;85.18;94399.02;1748751;81;21064;-46
2022/08/28 05:58:39;;;;;;;28.15;13.78;;;;;;;15.90;84.73;94395.09;1727405;81;22191;-47
2022/08/28 06:01:16;;;;;;;27.25;14.63;;;;;;;16.02;84.12;94396.73;1741925;81;21588;-46
2022/08/28 06:03:47;;;;;;;21.10;12.63;;;;;;;16.16;83.67;94390.92;1739818;81;21063;-46
2022/08/28 06:06:15;;;;;;;21.85;13.18;;;;;;;16.27;82.94;94387.61;1721410;81;20965;-47
2022/08/28 06:08:43;;;;;;;28.17;14.63;;;;;;;16.37;82.51;94390.39;1742805;82;21163;-48
2022/08/28 06:11:11;;;;;;;33.23;17.60;;;;;;;16.46;81.91;94393.75;1742827;82;21086;-47
2022/08/28 06:13:40;;;;;;;26.12;14.10;;;;;;;16.55;81.69;94386.61;1739914;81;21020;-47
2022/08/28 06:16:10;;;;;;;23.40;9.28;;;;;;;16.68;81.24;94387.58;1741838;82;21073;-47
2022/08/28 06:18:40;;;;;;;15.60;9.25;;;;;;;16.81;80.49;94387.92;1750187;81;20973;-47
2022/08/28 06:21:09;;;;;;;23.90;13.30;;;;;;;16.98;79.56;94387.40;1749755;81;21013;-47
2022/08/28 06:23:36;;;;;;;18.85;9.98;;;;;;;17.15;79.11;94393.81;1746944;80;21235;-47
2022/08/28 06:26:05;;;;;;;17.17;10.28;;;;;;;17.26;77.91;94386.92;1718626;82;21068;-47
2022/08/28 06:28:34;;;;;;;15.85;9.28;;;;;;;17.32;77.32;94388.45;1744575;81;21073;-47
2022/08/28 06:31:03;;;;;;;26.15;10.35;;;;;;;17.43;77.04;94392.70;1745185;81;21183;-47
2022/08/28 06:33:31;;;;;;;20.17;9.58;;;;;;;17.55;76.90;94386.55;1722675;82;20993;-47
2022/08/28 06:36:01;;;;;;;18.35;8.60;;;;;;;17.68;76.34;94393.17;1737930;80;21206;-47
2022/08/28 06:38:29;;;;;;;19.92;9.05;;;;;;;17.82;76.02;94390.06;1719614;81;21171;-47
2022/08/28 06:40:57;;;;;;;15.90;8.45;;;;;;;17.92;75.30;94382.99;1743806;80;21222;-47
2022/08/28 06:43:27;;;;;;;16.52;8.68;;;;;;;18.01;74.92;94384.16;1741131;81;20954;-47
2022/08/28 06:45:56;;;;;;;16.52;7.42;;;;;;;18.12;74.34;94390.50;1741281;81;20997;-47
2022/08/28 06:48:26;;;;;;;12.95;7.92;;;;;;;18.24;73.55;94380.91;1746295;81;21398;-47
2022/08/28 06:50:54;;;;;;;24.07;7.60;;;;;;;18.34;72.95;94376.01;1746878;81;20990;-48
2022/08/28 06:53:25;;;;;;;14.38;7.22;;;;;;;18.43;72.57;94380.56;1740894;82;21471;-47
2022/08/28 06:56:05;;;;;;;16.77;7.70;;;;;;;18.49;72.62;94379.28;1715832;81;20962;-47
2022/08/28 06:58:31;;;;;;;16.25;7.97;;;;;;;18.55;72.29;94384.23;1742184;81;21138;-47
2022/08/28 07:01:09;;;;;;;16.95;8.50;;;;;;;18.65;71.94;94381.95;1740982;81;21131;-47
2022/08/28 07:03:38;;;;;;;20.12;8.38;;;;;;;18.76;71.21;94382.70;1742182;81;21512;-47
2022/08/28 07:06:07;;;;;;;21.95;11.65;;;;;;;18.91;70.83;94381.02;1741626;82;20973;-47
2022/08/28 07:08:37;;;;;;;16.95;8.60;;;;;;;19.06;70.51;94375.92;1740088;81;21080;-47
2022/08/28 07:11:27;;;;;;;17.15;8.23;;;;;;;19.24;70.29;94379.58;1748434;82;20949;-48
2022/08/28 07:13:55;;;;;;;17.55;8.13;;;;;;;19.38;69.48;94375.09;1743544;81;21124;-47
2022/08/28 07:16:27;;;;;;;21.68;8.58;;;;;;;19.52;68.99;94376.81;1741636;82;20982;-48
2022/08/28 07:18:54;;;;;;;15.73;7.33;;;;;;;19.64;68.52;94379.69;1739440;82;20982;-47
2022/08/28 07:21:23;;;;;;;22.35;7.83;;;;;;;19.75;67.51;94369.86;1739624;81;22145;-47
2022/08/28 07:23:50;;;;;;;13.78;6.83;;;;;;;19.88;67.33;94375.63;1744410;81;21053;-46
2022/08/28 07:26:22;;;;;;;17.45;7.55;;;;;;;19.99;66.77;94371.39;1740535;81;21213;-48
2022/08/28 07:28:50;;;;;;;15.98;7.60;;;;;;;20.09;66.09;94365.62;1740310;81;21037;-47
2022/08/28 07:31:21;;;;;;;16.35;7.65;;;;;;;20.17;65.32;94361.02;1740136;81;20949;-47
2022/08/28 07:33:49;;;;;;;12.13;6.70;;;;;;;20.28;64.98;94361.70;1721565;82;21041;-47
2022/08/28 07:36:19;;;;;;;13.75;6.95;;;;;;;20.39;64.13;94360.86;1749975;81;21465;-47
2022/08/28 07:38:46;;;;;;;15.08;7.08;;;;;;;20.51;63.71;94362.27;1741961;81;21221;-47
2022/08/28 07:41:25;;;;;;;10.72;6.60;;;;;;;20.60;63.82;94354.31;1722921;81;21560;-47
2022/08/28 07:46:39;;;;;;;17.67;7.75;;;;;;;20.81;63.46;94354.02;1746232;81;20969;-47
2022/08/28 07:49:07;;;;;;;11.50;6.87;;;;;;;20.94;62.81;94349.96;1723574;81;21061;-47
2022/08/28 07:51:35;;;;;;;15.50;7.20;;;;;;;21.06;62.33;94352.00;1748106;80;21213;-47
2022/08/28 07:54:04;;;;;;;12.95;6.12;;;;;;;21.16;62.24;94347.58;1746068;81;20965;-47
2022/08/28 07:56:31;;;;;;;15.98;6.87;;;;;;;21.26;61.66;94342.50;1748680;81;20991;-47
2022/08/28 07:59:00;;;;;;;13.72;6.95;;;;;;;21.37;61.58;94345.19;1744847;81;21001;-48
2022/08/28 08:01:29;;;;;;;12.18;7.03;;;;;;;21.50;60.89;94339.67;1741059;81;21456;-47
2022/08/28 08:03:56;;;;;;;13.70;6.58;;;;;;;21.64;60.81;94341.97;1738468;80;21785;-48
2022/08/28 08:06:30;;;;;;;15.23;6.50;;;;;;;21.74;60.40;94330.48;1716187;81;20939;-48
2022/08/28 08:08:58;;;;;;;15.18;7.50;;;;;;;21.84;59.96;94330.23;1751661;81;21488;-47
2022/08/28 08:11:26;;;;;;;14.07;5.87;;;;;;;21.96;59.89;94330.95;1746775;81;20969;-46
2022/08/28 08:13:55;;;;;;;14.75;6.55;;;;;;;22.10;59.45;94330.48;1723265;81;21442;-47
2022/08/28 08:16:24;;;;;;;14.23;6.00;;;;;;;22.25;58.90;94327.96;1746685;81;21123;-47
2022/08/28 08:18:52;;;;;;;21.37;12.33;;;;;;;22.40;58.09;94328.91;1746242;81;20981;-47
2022/08/28 08:21:21;;;;;;;13.32;6.83;;;;;;;22.54;57.18;94324.86;1750477;80;21013;-48
2022/08/28 08:23:49;;;;;;;8.95;5.67;;;;;;;22.70;57.18;94325.97;1740924;80;21024;-47
2022/08/28 08:26:21;;;;;;;15.28;6.90;;;;;;;22.84;56.61;94332.39;1742652;81;20942;-48
2022/08/28 08:28:49;;;;;;;13.90;5.60;;;;;;;22.96;56.43;94333.05;1742132;81;21761;-47
2022/08/28 08:31:26;;;;;;;11.25;6.25;;;;;;;23.08;56.27;94325.95;1741182;82;20970;-47
2022/08/28 08:34:00;;;;;;;15.63;6.33;;;;;;;23.21;56.69;94319.62;1746137;81;21167;-47
2022/08/28 08:36:28;;;;;;;12.10;6.58;;;;;;;23.36;56.28;94321.25;1743455;81;21560;-48
2022/08/28 08:38:56;;;;;;;15.25;6.45;;;;;;;23.53;56.09;94325.22;1740481;81;20947;-48
2022/08/28 08:41:30;;;;;;;11.25;5.97;;;;;;;23.66;54.57;94321.00;1740059;82;21800;-47
2022/08/28 08:44:22;;;;;;;16.00;6.47;;;;;;;23.79;53.50;94320.96;1743013;82;21106;-47
2022/08/28 08:47:01;;;;;;;9.70;6.12;;;;;;;23.91;53.82;94320.87;1739860;81;21163;-47
2022/08/28 08:49:33;;;;;;;12.88;6.00;;;;;;;24.06;54.28;94314.02;1742482;81;21001;-48
2022/08/28 08:52:24;;;;;;;11.38;5.92;;;;;;;24.22;54.73;94310.08;1741551;82;21029;-47
2022/08/28 08:55:22;;;;;;;12.13;6.22;;;;;;;24.38;55.25;94310.34;1745643;81;21130;-49
2022/08/28 08:58:09;;;;;;;17.48;6.47;;;;;;;24.55;55.40;94303.70;1741016;81;21525;-47
2022/08/28 09:01:18;;;;;;;11.30;5.72;;;;;;;24.69;54.18;94303.70;1712902;82;20945;-48
2022/08/28 09:04:27;;;;;;;10.18;5.42;;;;;;;24.87;54.37;94313.36;1747036;80;21521;-47
2022/08/28 09:07:04;;;;;;;14.83;5.83;;;;;;;25.04;54.01;94305.23;1740621;81;21061;-48
2022/08/28 09:09:39;;;;;;;14.58;5.78;;;;;;;25.23;52.25;94304.36;1744299;82;21767;-47
2022/08/28 09:12:17;;;;;;;11.73;5.67;;;;;;;25.36;51.30;94304.91;1741466;81;21001;-52
2022/08/28 09:15:04;;;;;;;14.43;5.60;;;;;;;25.50;50.17;94307.73;1742664;80;21073;-47
2022/08/28 09:17:35;;;;;;;9.83;5.28;;;;;;;25.57;49.66;94307.00;1747320;81;21001;-47
2022/08/28 09:20:04;;;;;;;15.88;5.28;;;;;;;25.69;49.72;94306.13;1749056;81;20980;-47
2022/08/28 09:22:32;;;;;;;15.05;5.55;;;;;;;25.81;50.20;94295.30;1746608;80;21287;-48
2022/08/28 09:25:00;;;;;;;13.62;5.72;;;;;;;25.95;48.48;94305.91;1718501;82;20993;-48
2022/08/28 09:27:30;;;;;;;7.62;5.05;;;;;;;26.09;48.10;94299.56;1680354;82;21581;-47
2022/08/28 09:30:04;;;;;;;10.82;5.05;;;;;;;26.26;48.48;94304.04;1724259;81;21012;-48
2022/08/28 09:32:40;;;;;;;12.18;5.72;;;;;;;26.45;47.29;94305.88;1743789;81;20986;-47
2022/08/28 09:35:27;;;;;;;7.80;5.30;;;;;;;26.60;46.70;94299.52;1742502;81;21535;-47
2022/08/28 09:37:55;;;;;;;15.60;5.25;;;;;;;26.76;46.74;94300.41;1741572;81;21975;-48
2022/08/28 09:43:25;;;;;;;14.15;6.72;;;;;;;26.91;45.96;94291.95;1720284;82;20974;-47
2022/08/28 09:43:25;;;;;;;14.70;4.62;;;;;;;27.08;42.99;94294.19;1742534;81;21318;-47
2022/08/28 09:46:01;;;;;;;13.00;7.42;;;;;;;27.29;39.91;94285.64;1746464;81;21220;-46
2022/08/28 09:48:46;;;;;;;18.35;7.05;;;;;;;27.60;40.16;94288.47;1748390;81;21360;-48
2022/08/28 09:51:25;;;;;;;13.22;6.47;;;;;;;27.88;40.05;94296.72;1744223;81;21028;-47
2022/08/28 09:54:06;;;;;;;17.23;7.37;;;;;;;28.21;41.33;94300.44;1742764;81;25039;-47
2022/08/28 09:56:39;;;;;;;12.25;5.30;;;;;;;28.49;39.07;94301.55;1738094;82;20982;-47
2022/08/28 09:59:11;;;;;;;7.55;4.60;;;;;;;28.73;38.21;94293.02;1742933;81;21072;-47
2022/08/28 10:02:09;;;;;;;11.38;5.28;;;;;;;28.95;37.00;94292.86;1736618;81;21537;-47
2022/08/28 10:04:46;;;;;;;7.97;4.28;;;;;;;29.21;37.35;94294.34;1748139;81;21052;-48
2022/08/28 10:07:34;;;;;;;6.78;4.12;;;;;;;29.54;36.52;94285.84;1746110;81;21017;-47
2022/08/28 10:10:37;;;;;;;6.50;4.58;;;;;;;29.77;36.12;94283.52;1733581;81;20934;-47
2022/08/28 10:13:13;;;;;;;10.28;3.92;;;;;;;30.03;35.16;94290.05;1749379;81;21005;-47
2022/08/28 10:16:17;;;;;;;10.05;4.17;;;;;;;30.31;33.12;94286.66;1742140;81;21279;-47
2022/08/28 10:19:14;;;;;;;14.83;4.42;;;;;;;30.49;33.63;94281.02;1739111;81;21089;-50
2022/08/28 10:21:55;;;;;;;8.98;4.35;;;;;;;30.82;34.80;94287.95;1746588;81;20981;-48
2022/08/28 10:24:34;;;;;;;10.15;4.12;;;;;;;31.32;35.71;94289.73;1741559;80;21496;-48
2022/08/28 10:27:42;;;;;;;13.18;4.85;;;;;;;31.81;35.48;94295.69;1748269;81;20985;-48
2022/08/28 10:30:16;;;;;;;25.95;17.30;;;;;;;32.30;35.39;94293.70;1748283;81;21138;-49
2022/08/28 10:33:38;;;;;;;52.98;39.23;;;;;;;32.86;35.99;94286.42;1746139;80;20945;-47
2022/08/28 10:36:23;;;;;;;10.53;5.73;;;;;;;33.30;35.42;94287.47;1746775;82;21072;-48
2022/08/28 10:39:23;;;;;;;8.28;4.70;;;;;;;33.87;34.28;94293.55;1748662;81;21297;-49
2022/08/28 10:41:56;;;;;;;18.07;11.28;;;;;;;34.35;33.23;94287.55;1739205;81;21112;-47
2022/08/28 10:44:33;;;;;;;;;;;;;;;34.47;32.90;94286.22;1750571;81;21261;-48
2022/08/28 10:47:01;;;;;;;9.33;5.12;;;;;;;34.51;32.23;94283.62;1729793;81;20149;-49
2022/08/28 10:49:39;;;;;;;11.97;8.25;;;;;;;34.30;32.66;94282.23;1719521;82;21085;-48
2022/08/28 10:52:24;;;;;;;9.08;4.22;;;;;;;34.25;34.04;94296.20;1750791;80;21087;-48
2022/08/28 10:55:15;;;;;;;13.68;4.97;;;;;;;33.94;32.01;94295.51;1745755;81;21052;-48
2022/08/28 10:57:59;;;;;;;10.55;5.42;;;;;;;33.38;33.02;94288.70;1683575;81;21275;-47
2022/08/28 11:00:27;;;;;;;12.05;4.50;;;;;;;33.47;33.11;94292.20;1743613;81;20978;-48
2022/08/28 11:03:07;;;;;;;16.05;4.78;;;;;;;33.54;33.45;94284.84;1738767;82;20970;-50
2022/08/28 11:05:41;;;;;;;9.78;4.40;;;;;;;33.46;33.33;94279.27;1743849;81;21682;-47
2022/08/28 11:08:13;;;;;;;10.30;4.40;;;;;;;33.73;33.31;94289.03;1743662;81;21032;-48
2022/08/28 11:10:51;;;;;;;8.73;4.35;;;;;;;34.20;33.59;94284.45;1738010;81;20938;-48
2022/08/28 11:13:56;;;;;;;13.65;4.83;;;;;;;34.78;32.27;94284.66;1739068;81;21009;-49
2022/08/28 11:16:33;;;;;;;13.53;4.30;;;;;;;35.12;32.40;94290.45;1721636;81;21029;-47
2022/08/28 11:19:34;;;;;;;6.87;3.98;;;;;;;35.48;30.76;94289.87;1746369;81;21118;-48
2022/08/28 11:22:18;;;;;;;12.60;4.60;;;;;;;35.40;29.86;94285.77;1747843;81;21528;-49
2022/08/28 11:25:03;;;;;;;8.85;4.97;;;;;;;35.47;31.09;94291.21;1747989;81;21756;-49
2022/08/28 11:27:34;;;;;;;14.30;3.65;;;;;;;35.90;31.64;94291.02;1744419;81;21153;-49
2022/08/28 11:30:21;;;;;;;11.03;3.58;;;;;;;36.34;30.63;94291.55;1748231;81;21465;-49
2022/08/28 11:32:59;;;;;;;10.15;4.95;;;;;;;36.55;30.20;94294.90;1740896;81;22251;-48
2022/08/28 11:35:40;;;;;;;13.13;4.28;;;;;;;36.01;30.09;94302.45;1740711;81;21003;-48
2022/08/28 11:38:08;;;;;;;;;;;;;;;35.30;30.32;94300.87;1748373;80;21525;-48
2022/08/28 11:40:44;;;;;;;12.30;4.92;;;;;;;34.76;31.95;94295.97;1744913;82;20130;-48
2022/08/28 11:43:21;;;;;;;15.30;9.05;;;;;;;34.14;32.12;94299.70;1748657;81;21009;-48
2022/08/28 11:46:05;;;;;;;25.85;6.03;;;;;;;33.53;34.16;94302.59;1722024;81;21072;-48
2022/08/28 11:48:42;;;;;;;9.33;4.58;;;;;;;33.26;33.81;94298.60;1747696;80;21068;-48
2022/08/28 11:51:37;;;;;;;7.80;4.60;;;;;;;32.97;35.96;94300.05;1740001;81;21917;-52
2022/08/28 11:54:36;;;;;;;9.75;4.65;;;;;;;32.53;35.63;94301.09;1741686;80;21045;-48
2022/08/28 11:57:17;;;;;;;12.98;4.83;;;;;;;31.89;35.60;94297.73;1746435;81;21051;-48
2022/08/28 12:00:10;;;;;;;14.28;4.75;;;;;;;31.13;36.63;94302.47;1751948;80;20985;-48